sensor_id;sensor_type;location;lat;lon;timestamp;pressure;altitude;pressure_sealevel;temperature;humidity
16331;BME280;8275;48.206;16.340;2024-01-11T00:00:05;100462.56;;;2.21;45.21
16331;BME280;8275;48.206;16.340;2024-01-11T00:02:36;100464.59;;;2.19;45.32
16331;BME280;8275;48.206;16.340;2024-01-11T00:05:05;100462.91;;;2.18;45.46
16331;BME280;8275;48.206;16.340;2024-01-11T00:07:35;100465.94;;;2.14;45.34
16331;BME280;8275;48.206;16.340;2024-01-11T00:10:04;100463.59;;;2.11;45.43
16331;BME280;8275;48.206;16.340;2024-01-11T00:12:33;100457.53;;;2.09;45.85
16331;BME280;8275;48.206;16.340;2024-01-11T00:15:02;100458.72;;;2.07;45.57
16331;BME280;8275;48.206;16.340;2024-01-11T00:17:30;100464.47;;;2.04;45.93
16331;BME280;8275;48.206;16.340;2024-01-11T00:20:01;100469.00;;;2.03;45.90
16331;BME280;8275;48.206;16.340;2024-01-11T00:22:30;100464.81;;;2.01;45.49
16331;BME280;8275;48.206;16.340;2024-01-11T00:24:59;100458.72;;;1.99;45.55
16331;BME280;8275;48.206;16.340;2024-01-11T00:27:27;100454.34;;;1.98;45.49
16331;BME280;8275;48.206;16.340;2024-01-11T00:29:56;100458.25;;;1.95;45.50
16331;BME280;8275;48.206;16.340;2024-01-11T00:32:24;100455.69;;;1.94;45.60
16331;BME280;8275;48.206;16.340;2024-01-11T00:34:53;100465.84;;;1.92;45.97
16331;BME280;8275;48.206;16.340;2024-01-11T00:37:23;100452.31;;;1.92;45.20
16331;BME280;8275;48.206;16.340;2024-01-11T00:39:52;100454.53;;;1.88;45.14
16331;BME280;8275;48.206;16.340;2024-01-11T00:42:20;100455.34;;;1.89;45.88
16331;BME280;8275;48.206;16.340;2024-01-11T00:44:49;100454.53;;;1.88;45.55
16331;BME280;8275;48.206;16.340;2024-01-11T00:47:17;100449.97;;;1.89;45.74
16331;BME280;8275;48.206;16.340;2024-01-11T00:49:45;100450.13;;;1.87;46.03
16331;BME280;8275;48.206;16.340;2024-01-11T00:52:14;100450.13;;;1.87;45.60
16331;BME280;8275;48.206;16.340;2024-01-11T00:54:43;100456.56;;;1.86;45.60
16331;BME280;8275;48.206;16.340;2024-01-11T00:57:12;100455.72;;;1.86;45.35
16331;BME280;8275;48.206;16.340;2024-01-11T00:59:40;100458.44;;;1.86;45.97
16331;BME280;8275;48.206;16.340;2024-01-11T01:02:09;100457.56;;;1.85;45.82
16331;BME280;8275;48.206;16.340;2024-01-11T01:04:38;100459.28;;;1.86;45.18
16331;BME280;8275;48.206;16.340;2024-01-11T01:07:07;100453.03;;;1.86;45.83
16331;BME280;8275;48.206;16.340;2024-01-11T01:09:35;100455.88;;;1.84;45.60
16331;BME280;8275;48.206;16.340;2024-01-11T01:12:06;100453.16;;;1.84;46.05
16331;BME280;8275;48.206;16.340;2024-01-11T01:14:34;100461.47;;;1.83;46.17
16331;BME280;8275;48.206;16.340;2024-01-11T01:17:03;100459.94;;;1.80;45.27
16331;BME280;8275;48.206;16.340;2024-01-11T01:19:32;100461.97;;;1.78;46.19
16331;BME280;8275;48.206;16.340;2024-01-11T01:22:01;100464.19;;;1.75;45.87
16331;BME280;8275;48.206;16.340;2024-01-11T01:24:31;100474.47;;;1.71;45.99
16331;BME280;8275;48.206;16.340;2024-01-11T01:27:00;100481.06;;;1.69;45.88
16331;BME280;8275;48.206;16.340;2024-01-11T01:29:30;100473.31;;;1.66;45.49
16331;BME280;8275;48.206;16.340;2024-01-11T01:31:58;100468.25;;;1.63;46.05
16331;BME280;8275;48.206;16.340;2024-01-11T01:34:27;100464.03;;;1.60;45.82
16331;BME280;8275;48.206;16.340;2024-01-11T01:36:56;100461.50;;;1.59;45.82
16331;BME280;8275;48.206;16.340;2024-01-11T01:39:24;100468.09;;;1.56;45.60
16331;BME280;8275;48.206;16.340;2024-01-11T01:41:53;100469.25;;;1.54;45.89
16331;BME280;8275;48.206;16.340;2024-01-11T01:44:21;100454.56;;;1.48;46.05
16331;BME280;8275;48.206;16.340;2024-01-11T01:46:51;100461.34;;;1.44;45.37
16331;BME280;8275;48.206;16.340;2024-01-11T01:49:20;100456.25;;;1.41;45.80
16331;BME280;8275;48.206;16.340;2024-01-11T01:51:51;100451.38;;;1.36;45.45
16331;BME280;8275;48.206;16.340;2024-01-11T01:54:21;100457.28;;;1.32;46.02
16331;BME280;8275;48.206;16.340;2024-01-11T01:56:51;100454.22;;;1.27;46.21
16331;BME280;8275;48.206;16.340;2024-01-11T01:59:21;100459.13;;;1.23;46.59
16331;BME280;8275;48.206;16.340;2024-01-11T02:01:52;100459.47;;;1.20;45.89
16331;BME280;8275;48.206;16.340;2024-01-11T02:04:21;100454.25;;;1.19;45.85
16331;BME280;8275;48.206;16.340;2024-01-11T02:06:51;100452.72;;;1.16;46.31
16331;BME280;8275;48.206;16.340;2024-01-11T02:09:20;100453.03;;;1.13;46.04
16331;BME280;8275;48.206;16.340;2024-01-11T02:11:51;100452.38;;;1.11;46.00
16331;BME280;8275;48.206;16.340;2024-01-11T02:14:20;100455.25;;;1.10;45.93
16331;BME280;8275;48.206;16.340;2024-01-11T02:16:49;100451.88;;;1.08;46.24
16331;BME280;8275;48.206;16.340;2024-01-11T02:19:19;100457.41;;;1.06;45.92
16331;BME280;8275;48.206;16.340;2024-01-11T02:21:51;100457.59;;;1.05;46.59
16331;BME280;8275;48.206;16.340;2024-01-11T02:24:23;100445.09;;;1.04;46.51
16331;BME280;8275;48.206;16.340;2024-01-11T02:26:59;100439.03;;;1.02;46.72
16331;BME280;8275;48.206;16.340;2024-01-11T02:29:29;100441.06;;;1.00;46.45
16331;BME280;8275;48.206;16.340;2024-01-11T02:31:58;100445.59;;;0.99;46.32
16331;BME280;8275;48.206;16.340;2024-01-11T02:34:27;100439.53;;;0.97;46.04
16331;BME280;8275;48.206;16.340;2024-01-11T02:36:57;100435.84;;;0.98;46.15
16331;BME280;8275;48.206;16.340;2024-01-11T02:39:28;100433.47;;;0.95;46.35
16331;BME280;8275;48.206;16.340;2024-01-11T02:41:57;100428.06;;;0.95;45.88
16331;BME280;8275;48.206;16.340;2024-01-11T02:44:25;100422.84;;;0.94;46.36
16331;BME280;8275;48.206;16.340;2024-01-11T02:46:55;100427.38;;;0.93;46.82
16331;BME280;8275;48.206;16.340;2024-01-11T02:49:23;100416.78;;;0.92;46.52
16331;BME280;8275;48.206;16.340;2024-01-11T02:51:52;100418.63;;;0.91;46.72
16331;BME280;8275;48.206;16.340;2024-01-11T02:54:20;100410.72;;;0.90;46.25
16331;BME280;8275;48.206;16.340;2024-01-11T02:56:50;100406.50;;;0.87;46.60
16331;BME280;8275;48.206;16.340;2024-01-11T02:59:19;100394.19;;;0.85;46.24
16331;BME280;8275;48.206;16.340;2024-01-11T03:01:48;100404.28;;;0.83;46.75
16331;BME280;8275;48.206;16.340;2024-01-11T03:04:16;100413.38;;;0.82;46.34
16331;BME280;8275;48.206;16.340;2024-01-11T03:06:45;100410.88;;;0.80;46.41
16331;BME280;8275;48.206;16.340;2024-01-11T03:09:13;100403.75;;;0.79;46.82
16331;BME280;8275;48.206;16.340;2024-01-11T03:11:42;100404.94;;;0.77;46.67
16331;BME280;8275;48.206;16.340;2024-01-11T03:14:12;100404.09;;;0.76;47.03
16331;BME280;8275;48.206;16.340;2024-01-11T03:16:40;100398.88;;;0.75;46.43
16331;BME280;8275;48.206;16.340;2024-01-11T03:19:09;100395.31;;;0.74;46.66
16331;BME280;8275;48.206;16.340;2024-01-11T03:21:43;100397.19;;;0.74;46.69
16331;BME280;8275;48.206;16.340;2024-01-11T03:24:12;100397.88;;;0.76;46.44
16331;BME280;8275;48.206;16.340;2024-01-11T03:26:41;100397.19;;;0.74;46.28
16331;BME280;8275;48.206;16.340;2024-01-11T03:29:11;100390.09;;;0.73;46.55
16331;BME280;8275;48.206;16.340;2024-01-11T03:31:40;100384.53;;;0.74;46.89
16331;BME280;8275;48.206;16.340;2024-01-11T03:34:12;100383.88;;;0.72;46.58
16331;BME280;8275;48.206;16.340;2024-01-11T03:36:41;100389.25;;;0.72;46.73
16331;BME280;8275;48.206;16.340;2024-01-11T03:39:09;100391.94;;;0.72;46.47
16331;BME280;8275;48.206;16.340;2024-01-11T03:41:43;100378.66;;;0.70;47.24
16331;BME280;8275;48.206;16.340;2024-01-11T03:44:13;100374.09;;;0.71;46.88
16331;BME280;8275;48.206;16.340;2024-01-11T03:46:42;100371.41;;;0.71;47.13
16331;BME280;8275;48.206;16.340;2024-01-11T03:49:10;100367.00;;;0.70;47.21
16331;BME280;8275;48.206;16.340;2024-01-11T03:51:39;100371.56;;;0.69;47.31
16331;BME280;8275;48.206;16.340;2024-01-11T03:54:07;100368.03;;;0.69;47.12
16331;BME280;8275;48.206;16.340;2024-01-11T03:56:38;100369.03;;;0.68;47.29
16331;BME280;8275;48.206;16.340;2024-01-11T03:59:07;100370.88;;;0.67;47.17
16331;BME280;8275;48.206;16.340;2024-01-11T04:01:41;100370.88;;;0.67;46.64
16331;BME280;8275;48.206;16.340;2024-01-11T04:04:10;100375.41;;;0.67;47.34
16331;BME280;8275;48.206;16.340;2024-01-11T04:06:39;100362.97;;;0.66;46.60
16331;BME280;8275;48.206;16.340;2024-01-11T04:09:07;100352.19;;;0.66;46.65
16331;BME280;8275;48.206;16.340;2024-01-11T04:11:36;100359.59;;;0.64;46.61
16331;BME280;8275;48.206;16.340;2024-01-11T04:14:05;100355.88;;;0.65;47.12
16331;BME280;8275;48.206;16.340;2024-01-11T04:16:33;100355.06;;;0.64;47.10
16331;BME280;8275;48.206;16.340;2024-01-11T04:19:03;100357.91;;;0.63;47.18
16331;BME280;8275;48.206;16.340;2024-01-11T04:21:31;100363.28;;;0.63;47.24
16331;BME280;8275;48.206;16.340;2024-01-11T04:24:00;100367.84;;;0.62;46.89
16331;BME280;8275;48.206;16.340;2024-01-11T04:26:28;100368.88;;;0.61;47.28
16331;BME280;8275;48.206;16.340;2024-01-11T04:28:57;100359.25;;;0.59;47.30
16331;BME280;8275;48.206;16.340;2024-01-11T04:31:27;100361.09;;;0.58;46.72
16331;BME280;8275;48.206;16.340;2024-01-11T04:33:56;100368.34;;;0.58;47.39
16331;BME280;8275;48.206;16.340;2024-01-11T04:36:25;100372.91;;;0.57;47.30
16331;BME280;8275;48.206;16.340;2024-01-11T04:38:54;100368.34;;;0.58;47.39
16331;BME280;8275;48.206;16.340;2024-01-11T04:41:22;100364.81;;;0.57;47.36
16331;BME280;8275;48.206;16.340;2024-01-11T04:43:51;100374.75;;;0.57;47.45
16331;BME280;8275;48.206;16.340;2024-01-11T04:46:22;100379.28;;;0.56;47.24
16331;BME280;8275;48.206;16.340;2024-01-11T04:48:51;100381.13;;;0.56;47.48
16331;BME280;8275;48.206;16.340;2024-01-11T04:51:20;100389.22;;;0.56;47.43
16331;BME280;8275;48.206;16.340;2024-01-11T04:53:50;100393.78;;;0.55;46.69
16331;BME280;8275;48.206;16.340;2024-01-11T04:56:18;100394.63;;;0.56;47.06
16331;BME280;8275;48.206;16.340;2024-01-11T04:58:47;100396.31;;;0.57;46.80
16331;BME280;8275;48.206;16.340;2024-01-11T05:01:17;100395.47;;;0.56;46.97
16331;BME280;8275;48.206;16.340;2024-01-11T05:03:47;100399.88;;;0.57;47.29
16331;BME280;8275;48.206;16.340;2024-01-11T05:06:16;100398.16;;;0.56;46.88
16331;BME280;8275;48.206;16.340;2024-01-11T05:08:46;100405.41;;;0.56;47.22
16331;BME280;8275;48.206;16.340;2024-01-11T05:11:17;100402.03;;;0.54;46.98
16331;BME280;8275;48.206;16.340;2024-01-11T05:13:45;100402.03;;;0.54;46.87
16331;BME280;8275;48.206;16.340;2024-01-11T05:16:20;100403.19;;;0.51;46.96
16331;BME280;8275;48.206;16.340;2024-01-11T05:18:50;100405.22;;;0.49;46.71
16331;BME280;8275;48.206;16.340;2024-01-11T05:21:18;100402.69;;;0.48;47.28
16331;BME280;8275;48.206;16.340;2024-01-11T05:23:47;100397.31;;;0.48;46.93
16331;BME280;8275;48.206;16.340;2024-01-11T05:26:18;100398.31;;;0.47;47.20
16331;BME280;8275;48.206;16.340;2024-01-11T05:28:47;100406.56;;;0.45;47.00
16331;BME280;8275;48.206;16.340;2024-01-11T05:31:16;100401.19;;;0.45;47.25
16331;BME280;8275;48.206;16.340;2024-01-11T05:33:45;100399.47;;;0.44;47.26
16331;BME280;8275;48.206;16.340;2024-01-11T05:36:15;100409.41;;;0.44;47.15
16331;BME280;8275;48.206;16.340;2024-01-11T05:38:45;100405.03;;;0.43;47.38
16331;BME280;8275;48.206;16.340;2024-01-11T05:41:14;100406.88;;;0.42;47.37
16331;BME280;8275;48.206;16.340;2024-01-11T05:43:44;100405.03;;;0.43;46.85
16331;BME280;8275;48.206;16.340;2024-01-11T05:46:12;100406.88;;;0.42;47.14
16331;BME280;8275;48.206;16.340;2024-01-11T05:48:41;100400.63;;;0.42;47.14
16331;BME280;8275;48.206;16.340;2024-01-11T05:51:10;100396.09;;;0.42;47.17
16331;BME280;8275;48.206;16.340;2024-01-11T05:53:39;100405.22;;;0.41;46.96
16331;BME280;8275;48.206;16.340;2024-01-11T05:56:08;100404.38;;;0.41;46.85
16331;BME280;8275;48.206;16.340;2024-01-11T05:58:37;100399.13;;;0.39;47.31
16331;BME280;8275;48.206;16.340;2024-01-11T06:01:09;100397.44;;;0.38;46.64
16331;BME280;8275;48.206;16.340;2024-01-11T06:03:37;100398.44;;;0.37;47.48
16331;BME280;8275;48.206;16.340;2024-01-11T06:06:06;100387.84;;;0.36;46.90
16331;BME280;8275;48.206;16.340;2024-01-11T06:08:36;100389.19;;;0.32;47.16
16331;BME280;8275;48.206;16.340;2024-01-11T06:11:05;100384.97;;;0.29;47.26
16331;BME280;8275;48.206;16.340;2024-01-11T06:13:35;100389.81;;;0.26;47.21
16331;BME280;8275;48.206;16.340;2024-01-11T06:16:04;100382.06;;;0.23;47.15
16331;BME280;8275;48.206;16.340;2024-01-11T06:18:35;100380.53;;;0.20;47.15
16331;BME280;8275;48.206;16.340;2024-01-11T06:21:04;100388.78;;;0.19;47.06
16331;BME280;8275;48.206;16.340;2024-01-11T06:23:32;100387.28;;;0.16;46.84
16331;BME280;8275;48.206;16.340;2024-01-11T06:26:01;100395.66;;;0.13;47.14
16331;BME280;8275;48.206;16.340;2024-01-11T06:28:30;100395.81;;;0.12;47.00
16331;BME280;8275;48.206;16.340;2024-01-11T06:31:02;100391.44;;;0.11;46.89
16331;BME280;8275;48.206;16.340;2024-01-11T06:33:31;100399.34;;;0.12;47.40
16331;BME280;8275;48.206;16.340;2024-01-11T06:36:07;100393.97;;;0.12;47.36
16331;BME280;8275;48.206;16.340;2024-01-11T06:38:35;100397.50;;;0.13;47.32
16331;BME280;8275;48.206;16.340;2024-01-11T06:41:04;100400.22;;;0.13;46.88
16331;BME280;8275;48.206;16.340;2024-01-11T06:43:32;100387.59;;;0.13;46.94
16331;BME280;8275;48.206;16.340;2024-01-11T06:46:03;100407.31;;;0.14;46.90
16331;BME280;8275;48.206;16.340;2024-01-11T06:48:32;100411.84;;;0.13;47.38
16331;BME280;8275;48.206;16.340;2024-01-11T06:51:01;100422.63;;;0.13;47.04
16331;BME280;8275;48.206;16.340;2024-01-11T06:53:31;100439.63;;;0.14;46.78
16331;BME280;8275;48.206;16.340;2024-01-11T06:56:00;100447.53;;;0.15;47.39
16331;BME280;8275;48.206;16.340;2024-01-11T06:58:28;100444.84;;;0.15;46.95
16331;BME280;8275;48.206;16.340;2024-01-11T07:00:57;100433.75;;;0.18;47.30
16331;BME280;8275;48.206;16.340;2024-01-11T07:03:25;100426.19;;;0.22;47.56
16331;BME280;8275;48.206;16.340;2024-01-11T07:05:55;100436.66;;;0.25;47.04
16331;BME280;8275;48.206;16.340;2024-01-11T07:08:23;100433.59;;;0.28;46.99
16331;BME280;8275;48.206;16.340;2024-01-11T07:10:53;100422.69;;;0.29;47.62
16331;BME280;8275;48.206;16.340;2024-01-11T07:13:21;100427.91;;;0.31;47.70
16331;BME280;8275;48.206;16.340;2024-01-11T07:15:50;100441.22;;;0.32;47.19
16331;BME280;8275;48.206;16.340;2024-01-11T07:18:19;100441.72;;;0.36;47.48
16331;BME280;8275;48.206;16.340;2024-01-11T07:20:48;100444.25;;;0.37;47.16
16331;BME280;8275;48.206;16.340;2024-01-11T07:23:16;100440.41;;;0.40;47.27
16331;BME280;8275;48.206;16.340;2024-01-11T07:25:45;100433.84;;;0.42;47.11
16331;BME280;8275;48.206;16.340;2024-01-11T07:28:15;100436.22;;;0.45;47.16
16331;BME280;8275;48.206;16.340;2024-01-11T07:30:44;100435.19;;;0.46;47.28
16331;BME280;8275;48.206;16.340;2024-01-11T07:33:13;100439.41;;;0.49;47.27
16331;BME280;8275;48.206;16.340;2024-01-11T07:35:42;100444.81;;;0.49;47.54
16331;BME280;8275;48.206;16.340;2024-01-11T07:38:10;100440.94;;;0.51;47.72
16331;BME280;8275;48.206;16.340;2024-01-11T07:40:38;100446.50;;;0.58;46.88
16331;BME280;8275;48.206;16.340;2024-01-11T07:43:10;100449.06;;;0.59;47.46
16331;BME280;8275;48.206;16.340;2024-01-11T07:45:40;100438.97;;;0.61;47.57
16331;BME280;8275;48.206;16.340;2024-01-11T07:48:09;100425.84;;;0.66;47.48
16331;BME280;8275;48.206;16.340;2024-01-11T07:50:38;100422.81;;;0.78;47.54
16331;BME280;8275;48.206;16.340;2024-01-11T07:53:06;100426.03;;;0.89;47.57
16331;BME280;8275;48.206;16.340;2024-01-11T07:55:35;100433.63;;;0.94;46.76
16331;BME280;8275;48.206;16.340;2024-01-11T07:58:04;100434.13;;;0.97;47.14
16331;BME280;8275;48.206;16.340;2024-01-11T08:00:33;100431.44;;;0.97;47.51
16331;BME280;8275;48.206;16.340;2024-01-11T08:03:03;100434.97;;;0.98;47.00
16331;BME280;8275;48.206;16.340;2024-01-11T08:05:32;100438.53;;;1.06;46.79
16331;BME280;8275;48.206;16.340;2024-01-11T08:08:01;100454.56;;;1.08;47.34
16331;BME280;8275;48.206;16.340;2024-01-11T08:10:31;100448.81;;;1.11;46.95
16331;BME280;8275;48.206;16.340;2024-01-11T08:13:00;100449.66;;;1.11;46.80
16331;BME280;8275;48.206;16.340;2024-01-11T08:15:28;100452.38;;;1.11;46.87
16331;BME280;8275;48.206;16.340;2024-01-11T08:17:57;100445.97;;;1.12;46.54
16331;BME280;8275;48.206;16.340;2024-01-11T08:20:29;100442.25;;;1.13;46.75
16331;BME280;8275;48.206;16.340;2024-01-11T08:22:57;100455.91;;;1.20;46.92
16331;BME280;8275;48.206;16.340;2024-01-11T08:25:26;100451.88;;;1.24;47.12
16331;BME280;8275;48.206;16.340;2024-01-11T08:27:54;100461.66;;;1.33;46.77
16331;BME280;8275;48.206;16.340;2024-01-11T08:30:23;100458.63;;;1.36;46.47
16331;BME280;8275;48.206;16.340;2024-01-11T08:32:51;100452.72;;;1.40;46.72
16331;BME280;8275;48.206;16.340;2024-01-11T08:35:20;100452.38;;;1.43;46.92
16331;BME280;8275;48.206;16.340;2024-01-11T08:37:50;100457.13;;;1.50;47.17
16331;BME280;8275;48.206;16.340;2024-01-11T08:40:19;100449.19;;;1.56;47.38
16331;BME280;8275;48.206;16.340;2024-01-11T08:42:48;100447.50;;;1.63;47.20
16331;BME280;8275;48.206;16.340;2024-01-11T08:45:16;100450.84;;;1.73;46.55
16331;BME280;8275;48.206;16.340;2024-01-11T08:47:46;100445.25;;;1.83;47.07
16331;BME280;8275;48.206;16.340;2024-01-11T08:50:15;100442.38;;;1.92;46.81
16331;BME280;8275;48.206;16.340;2024-01-11T08:52:51;100438.28;;;2.04;46.50
16331;BME280;8275;48.206;16.340;2024-01-11T08:55:23;100436.22;;;2.14;47.11
16331;BME280;8275;48.206;16.340;2024-01-11T08:57:51;100433.16;;;2.26;46.39
16331;BME280;8275;48.206;16.340;2024-01-11T09:00:20;100418.59;;;2.35;46.14
16331;BME280;8275;48.206;16.340;2024-01-11T09:02:49;100413.97;;;2.43;46.54
16331;BME280;8275;48.206;16.340;2024-01-11T09:05:17;100409.53;;;2.50;46.64
16331;BME280;8275;48.206;16.340;2024-01-11T09:07:46;100416.09;;;2.56;45.91
16331;BME280;8275;48.206;16.340;2024-01-11T09:10:18;100403.25;;;2.58;46.32
16331;BME280;8275;48.206;16.340;2024-01-11T09:12:47;100396.47;;;2.62;46.49
16331;BME280;8275;48.206;16.340;2024-01-11T09:15:15;100392.72;;;2.63;46.33
16331;BME280;8275;48.206;16.340;2024-01-11T09:17:44;100393.22;;;2.66;45.81
16331;BME280;8275;48.206;16.340;2024-01-11T09:20:14;100388.13;;;2.71;45.66
16331;BME280;8275;48.206;16.340;2024-01-11T09:22:44;100379.28;;;2.77;46.45
16331;BME280;8275;48.206;16.340;2024-01-11T09:25:13;100377.75;;;2.83;46.02
16331;BME280;8275;48.206;16.340;2024-01-11T09:27:43;100385.13;;;2.89;45.49
16331;BME280;8275;48.206;16.340;2024-01-11T09:30:12;100376.34;;;2.87;44.64
16331;BME280;8275;48.206;16.340;2024-01-11T09:32:41;100372.97;;;2.85;44.76
16331;BME280;8275;48.206;16.340;2024-01-11T09:35:09;100361.31;;;2.84;44.57
16331;BME280;8275;48.206;16.340;2024-01-11T09:37:42;100354.69;;;2.87;44.22
16331;BME280;8275;48.206;16.340;2024-01-11T09:40:13;100337.91;;;2.92;44.36
16331;BME280;8275;48.206;16.340;2024-01-11T09:42:45;100331.97;;;2.96;44.58
16331;BME280;8275;48.206;16.340;2024-01-11T09:45:17;100307.06;;;3.01;44.65
16331;BME280;8275;48.206;16.340;2024-01-11T09:47:46;100297.88;;;3.24;43.52
16331;BME280;8275;48.206;16.340;2024-01-11T09:50:16;100312.06;;;3.26;43.78
16331;BME280;8275;48.206;16.340;2024-01-11T09:52:47;100300.69;;;3.31;43.67
16331;BME280;8275;48.206;16.340;2024-01-11T09:55:17;100296.75;;;3.33;44.13
16331;BME280;8275;48.206;16.340;2024-01-11T09:57:48;100292.00;;;3.35;44.10
16331;BME280;8275;48.206;16.340;2024-01-11T10:00:23;100297.06;;;3.38;43.80
16331;BME280;8275;48.206;16.340;2024-01-11T10:02:53;100296.84;;;3.40;43.91
16331;BME280;8275;48.206;16.340;2024-01-11T10:05:21;100297.50;;;3.42;43.74
16331;BME280;8275;48.206;16.340;2024-01-11T10:07:50;100306.09;;;3.45;44.05
16331;BME280;8275;48.206;16.340;2024-01-11T10:10:18;100292.00;;;3.50;43.94
16331;BME280;8275;48.206;16.340;2024-01-11T10:12:49;100297.69;;;3.55;43.82
16331;BME280;8275;48.206;16.340;2024-01-11T10:15:18;100301.25;;;3.55;43.82
16331;BME280;8275;48.206;16.340;2024-01-11T10:17:46;100304.63;;;3.58;43.66
16331;BME280;8275;48.206;16.340;2024-01-11T10:20:16;100299.41;;;3.56;43.41
16331;BME280;8275;48.206;16.340;2024-01-11T10:22:51;100307.53;;;3.56;43.22
16331;BME280;8275;48.206;16.340;2024-01-11T10:25:20;100306.66;;;3.55;43.29
16331;BME280;8275;48.206;16.340;2024-01-11T10:27:50;100317.31;;;3.57;43.03
16331;BME280;8275;48.206;16.340;2024-01-11T10:30:18;100309.38;;;3.55;42.92
16331;BME280;8275;48.206;16.340;2024-01-11T10:32:49;100293.31;;;3.54;42.82
16331;BME280;8275;48.206;16.340;2024-01-11T10:35:18;100281.28;;;3.57;43.33
16331;BME280;8275;48.206;16.340;2024-01-11T10:37:51;100288.19;;;3.59;43.15
16331;BME280;8275;48.206;16.340;2024-01-11T10:40:22;100293.06;;;3.64;43.73
16331;BME280;8275;48.206;16.340;2024-01-11T10:42:57;100297.91;;;3.68;43.06
16331;BME280;8275;48.206;16.340;2024-01-11T10:45:29;100285.38;;;3.82;43.27
16331;BME280;8275;48.206;16.340;2024-01-11T10:48:02;100283.25;;;4.13;43.14
16331;BME280;8275;48.206;16.340;2024-01-11T10:50:35;100281.00;;;4.52;43.54
16331;BME280;8275;48.206;16.340;2024-01-11T10:53:20;100272.22;;;4.92;42.28
16331;BME280;8275;48.206;16.340;2024-01-11T10:55:52;100267.63;;;5.21;42.20
16331;BME280;8275;48.206;16.340;2024-01-11T10:58:22;100263.84;;;5.49;41.19
16331;BME280;8275;48.206;16.340;2024-01-11T11:00:54;100262.31;;;5.68;40.45
16331;BME280;8275;48.206;16.340;2024-01-11T11:03:23;100259.94;;;5.93;40.90
16331;BME280;8275;48.206;16.340;2024-01-11T11:05:54;100251.91;;;6.19;40.56
16331;BME280;8275;48.206;16.340;2024-01-11T11:08:24;100251.31;;;6.43;39.93
16331;BME280;8275;48.206;16.340;2024-01-11T11:10:55;100239.03;;;6.67;39.46
16331;BME280;8275;48.206;16.340;2024-01-11T11:13:27;100233.16;;;6.89;38.70
16331;BME280;8275;48.206;16.340;2024-01-11T11:15:55;100223.72;;;7.12;38.98
16331;BME280;8275;48.206;16.340;2024-01-11T11:18:28;100229.16;;;7.31;37.71
16331;BME280;8275;48.206;16.340;2024-01-11T11:20:58;100231.22;;;7.49;36.79
16331;BME280;8275;48.206;16.340;2024-01-11T11:23:28;100231.19;;;7.62;37.48
16331;BME280;8275;48.206;16.340;2024-01-11T11:25:57;100243.09;;;7.87;37.57
16331;BME280;8275;48.206;16.340;2024-01-11T11:28:27;100254.94;;;8.12;36.43
16331;BME280;8275;48.206;16.340;2024-01-11T11:31:00;100239.16;;;8.21;35.69
16331;BME280;8275;48.206;16.340;2024-01-11T11:33:30;100234.50;;;8.34;35.94
16331;BME280;8275;48.206;16.340;2024-01-11T11:35:59;100220.09;;;8.52;35.82
16331;BME280;8275;48.206;16.340;2024-01-11T11:38:30;100210.94;;;8.71;35.78
16331;BME280;8275;48.206;16.340;2024-01-11T11:41:01;100202.13;;;8.94;35.39
16331;BME280;8275;48.206;16.340;2024-01-11T11:43:32;100204.72;;;9.13;34.71
16331;BME280;8275;48.206;16.340;2024-01-11T11:46:00;100213.78;;;9.32;34.98
16331;BME280;8275;48.206;16.340;2024-01-11T11:48:51;100209.09;;;9.57;35.12
16331;BME280;8275;48.206;16.340;2024-01-11T11:51:20;100198.31;;;9.80;35.11
16331;BME280;8275;48.206;16.340;2024-01-11T11:53:53;100199.50;;;10.03;35.01
16331;BME280;8275;48.206;16.340;2024-01-11T11:56:22;100200.44;;;10.15;34.76
16331;BME280;8275;48.206;16.340;2024-01-11T11:58:53;100173.91;;;10.15;34.50
16331;BME280;8275;48.206;16.340;2024-01-11T12:01:23;100171.06;;;10.22;33.14
16331;BME280;8275;48.206;16.340;2024-01-11T12:03:52;100168.44;;;10.27;33.17
16331;BME280;8275;48.206;16.340;2024-01-11T12:06:22;100165.88;;;10.43;33.41
16331;BME280;8275;48.206;16.340;2024-01-11T12:08:53;100166.44;;;10.75;33.94
16331;BME280;8275;48.206;16.340;2024-01-11T12:11:25;100158.88;;;11.12;33.96
16331;BME280;8275;48.206;16.340;2024-01-11T12:13:55;100133.53;;;11.45;33.88
16331;BME280;8275;48.206;16.340;2024-01-11T12:16:25;100141.63;;;11.74;33.44
16331;BME280;8275;48.206;16.340;2024-01-11T12:18:55;100142.28;;;11.93;32.10
16331;BME280;8275;48.206;16.340;2024-01-11T12:21:23;100134.69;;;12.12;32.31
16331;BME280;8275;48.206;16.340;2024-01-11T12:23:53;100132.25;;;12.43;31.91
16331;BME280;8275;48.206;16.340;2024-01-11T12:26:22;100122.22;;;12.65;31.54
16331;BME280;8275;48.206;16.340;2024-01-11T12:28:51;100119.81;;;12.86;31.27
16331;BME280;8275;48.206;16.340;2024-01-11T12:31:22;100124.56;;;13.07;30.27
16331;BME280;8275;48.206;16.340;2024-01-11T12:33:51;100127.41;;;13.12;29.20
16331;BME280;8275;48.206;16.340;2024-01-11T12:36:21;100118.56;;;13.10;29.97
16331;BME280;8275;48.206;16.340;2024-01-11T12:38:50;100114.22;;;13.14;29.61
16331;BME280;8275;48.206;16.340;2024-01-11T12:41:21;100121.38;;;13.15;29.34
16331;BME280;8275;48.206;16.340;2024-01-11T12:43:51;100133.38;;;12.92;28.74
16331;BME280;8275;48.206;16.340;2024-01-11T12:46:22;100139.97;;;12.30;28.98
16331;BME280;8275;48.206;16.340;2024-01-11T12:48:51;100147.59;;;11.60;29.63
16331;BME280;8275;48.206;16.340;2024-01-11T12:51:20;100153.72;;;10.92;29.63
16331;BME280;8275;48.206;16.340;2024-01-11T12:53:52;100147.66;;;10.37;30.22
16331;BME280;8275;48.206;16.340;2024-01-11T12:56:21;100140.22;;;9.97;30.57
16331;BME280;8275;48.206;16.340;2024-01-11T12:58:50;100140.25;;;9.60;31.40
16331;BME280;8275;48.206;16.340;2024-01-11T13:01:20;100144.19;;;9.28;32.07
16331;BME280;8275;48.206;16.340;2024-01-11T13:03:50;100139.47;;;9.17;32.24
16331;BME280;8275;48.206;16.340;2024-01-11T13:06:19;100141.31;;;9.23;32.56
16331;BME280;8275;48.206;16.340;2024-01-11T13:08:48;100139.28;;;9.18;32.42
16331;BME280;8275;48.206;16.340;2024-01-11T13:11:17;100135.03;;;8.98;32.59